createdAt,value
2018-02-06T00:00:01.897Z,5.90
2018-02-06T00:02:28.612Z,5.87
2018-02-06T00:04:55.294Z,5.30
2018-02-06T00:07:22.007Z,6.70
2018-02-06T00:09:48.698Z,5.60
2018-02-06T00:12:15.380Z,5.47
2018-02-06T00:14:42.087Z,6.00
2018-02-06T00:17:08.789Z,5.67
2018-02-06T00:19:35.468Z,5.93
2018-02-06T00:22:02.164Z,5.50
2018-02-06T00:24:28.857Z,5.30
2018-02-06T00:26:55.544Z,5.73
2018-02-06T00:29:22.231Z,5.80
2018-02-06T00:31:48.953Z,5.63
2018-02-06T00:34:15.643Z,5.20
2018-02-06T00:36:42.337Z,5.97
2018-02-06T00:39:09.037Z,5.53
2018-02-06T00:41:35.728Z,5.80
2018-02-06T00:44:02.449Z,5.83
2018-02-06T00:46:29.130Z,5.80
2018-02-06T00:48:55.820Z,5.50
2018-02-06T00:51:22.718Z,5.93
2018-02-06T00:53:49.404Z,5.87
2018-02-06T00:56:16.208Z,5.77
2018-02-06T00:58:42.885Z,5.47
2018-02-06T01:01:09.601Z,5.20
2018-02-06T01:03:36.350Z,5.80
2018-02-06T01:06:03.025Z,5.73
2018-02-06T01:08:29.730Z,5.60
2018-02-06T01:10:56.422Z,6.30
2018-02-06T01:13:23.339Z,5.70
2018-02-06T01:15:50.022Z,5.40
2018-02-06T01:18:16.712Z,6.10
2018-02-06T01:20:43.427Z,5.37
2018-02-06T01:23:10.274Z,5.43
2018-02-06T01:25:36.960Z,5.20
2018-02-06T01:28:03.719Z,5.77
2018-02-06T01:30:30.416Z,5.43
2018-02-06T01:32:57.132Z,5.37
2018-02-06T01:35:23.854Z,5.20
2018-02-06T01:37:50.588Z,5.33
2018-02-06T01:40:17.280Z,5.37
2018-02-06T01:42:43.963Z,4.50
2018-02-06T01:45:10.709Z,5.20
2018-02-06T01:47:37.399Z,4.80
2018-02-06T01:50:04.840Z,4.57
2018-02-06T01:52:31.549Z,4.80
2018-02-06T01:54:58.233Z,5.27
2018-02-06T01:57:24.985Z,5.13
2018-02-06T01:59:51.660Z,4.70
2018-02-06T02:02:18.432Z,4.67
2018-02-06T02:04:45.106Z,4.93
2018-02-06T02:07:11.814Z,4.40
2018-02-06T02:09:38.717Z,4.73
2018-02-06T02:12:05.393Z,5.10
2018-02-06T02:14:32.088Z,4.80
2018-02-06T02:16:58.788Z,4.53
2018-02-06T02:19:25.479Z,4.23
2018-02-06T02:21:52.200Z,4.83
2018-02-06T02:24:18.888Z,4.80
2018-02-06T02:26:45.588Z,5.07
2018-02-06T02:29:12.280Z,4.27
2018-02-06T02:31:38.979Z,3.67
2018-02-06T02:34:05.690Z,4.87
2018-02-06T02:36:32.372Z,4.40
2018-02-06T02:38:59.059Z,4.67
2018-02-06T02:41:25.749Z,4.07
2018-02-06T04:38:47.992Z,6.20
2018-02-06T04:41:14.685Z,5.87
2018-02-06T04:43:41.366Z,5.93
2018-02-06T04:46:08.094Z,5.60
2018-02-06T04:48:34.787Z,6.27
2018-02-06T04:51:01.474Z,5.90
2018-02-06T04:53:28.178Z,6.50
2018-02-06T04:55:54.881Z,6.20
2018-02-06T04:58:21.566Z,6.30
2018-02-06T05:00:48.274Z,6.53
2018-02-06T05:03:14.955Z,5.67
2018-02-06T05:05:41.638Z,6.20
2018-02-06T05:08:08.319Z,6.97
2018-02-06T05:10:35.011Z,6.63
2018-02-06T05:13:01.714Z,6.47
2018-02-06T05:15:28.406Z,6.27
2018-02-06T05:17:55.189Z,6.03
2018-02-06T05:20:21.884Z,8.43
2018-02-06T05:22:48.580Z,6.60
2018-02-06T05:25:15.545Z,6.23
2018-02-06T05:27:42.214Z,7.37
2018-02-06T05:30:08.899Z,5.90
2018-02-06T05:32:35.585Z,6.30
2018-02-06T05:35:02.284Z,6.20
2018-02-06T05:37:28.992Z,5.97
2018-02-06T05:39:55.689Z,6.70
2018-02-06T05:42:22.426Z,5.80
2018-02-06T05:44:49.174Z,10.57
2018-02-06T05:47:15.855Z,13.40
2018-02-06T05:49:42.578Z,12.20
2018-02-06T05:52:09.284Z,10.97
2018-02-06T05:54:35.976Z,9.63
2018-02-06T05:57:02.661Z,8.00
2018-02-06T05:59:29.375Z,7.77
2018-02-06T06:01:56.097Z,10.17
2018-02-06T06:04:22.802Z,9.57
2018-02-06T06:06:49.491Z,7.93
2018-02-06T06:09:16.179Z,8.67
2018-02-06T06:11:42.874Z,7.43
2018-02-06T06:14:09.580Z,8.73
2018-02-06T06:16:36.281Z,6.97
2018-02-06T06:19:02.985Z,8.93
2018-02-06T06:21:29.652Z,6.43
2018-02-06T06:23:56.349Z,7.37
2018-02-06T06:26:23.062Z,6.03
2018-02-06T06:28:49.747Z,6.03
2018-02-06T06:31:16.435Z,6.80
2018-02-06T06:33:43.140Z,6.53
2018-02-06T06:36:09.834Z,6.53
2018-02-06T06:38:36.531Z,6.13
2018-02-06T06:41:03.226Z,6.10
2018-02-06T06:43:29.915Z,6.77
2018-02-06T06:45:56.810Z,5.50
2018-02-06T06:48:23.508Z,6.37
2018-02-06T06:50:50.224Z,6.00
2018-02-06T06:53:16.914Z,6.70
2018-02-06T06:55:43.602Z,5.70
2018-02-06T06:58:10.293Z,5.63
2018-02-06T07:00:36.981Z,6.23
2018-02-06T07:03:03.694Z,5.20
2018-02-06T07:05:30.371Z,6.20
2018-02-06T07:07:57.068Z,5.50
2018-02-06T07:10:23.768Z,5.60
2018-02-06T07:12:50.455Z,5.30
2018-02-06T07:15:17.166Z,5.43
2018-02-06T07:17:43.856Z,5.07
2018-02-06T07:20:10.559Z,4.97
2018-02-06T07:22:37.249Z,5.63
2018-02-06T07:25:03.952Z,5.60
2018-02-06T07:27:30.675Z,5.80
2018-02-06T07:29:57.385Z,5.77
2018-02-06T07:32:24.140Z,5.53
2018-02-06T07:34:50.823Z,5.60
2018-02-06T07:37:17.524Z,5.43
2018-02-06T07:39:44.216Z,5.33
2018-02-06T07:42:10.975Z,6.23
2018-02-06T07:44:37.659Z,5.77
2018-02-06T07:47:04.368Z,4.93
2018-02-06T07:49:31.049Z,5.23
2018-02-06T07:51:57.776Z,5.30
2018-02-06T07:54:24.472Z,5.23
2018-02-06T07:56:51.199Z,5.60
2018-02-06T07:59:18.019Z,5.23
2018-02-06T08:01:44.696Z,4.73
2018-02-06T08:04:11.410Z,4.93
2018-02-06T08:06:38.137Z,5.10
2018-02-06T08:09:04.821Z,5.07
2018-02-06T08:11:31.521Z,5.27
2018-02-06T08:13:58.218Z,4.70
2018-02-06T08:16:24.950Z,4.80
2018-02-06T08:18:51.643Z,5.17
2018-02-06T08:21:18.416Z,5.03
2018-02-06T08:23:45.104Z,5.40
2018-02-06T08:26:11.793Z,5.47
2018-02-06T08:28:38.516Z,5.03
2018-02-06T08:31:05.201Z,5.50
2018-02-06T08:33:31.884Z,5.07
2018-02-06T08:35:58.592Z,5.47
2018-02-06T08:38:25.290Z,5.93
2018-02-06T08:40:52.067Z,5.60
2018-02-06T08:43:18.839Z,5.80
2018-02-06T08:45:45.500Z,5.73
2018-02-06T08:48:12.237Z,6.00
2018-02-06T08:50:38.921Z,5.50
2018-02-06T08:53:05.630Z,5.70
2018-02-06T08:55:32.324Z,15.20
2018-02-06T08:57:59.005Z,11.27
2018-02-06T09:00:25.754Z,8.50
2018-02-06T09:02:52.439Z,10.13
2018-02-06T09:05:19.156Z,13.53
2018-02-06T09:07:45.843Z,7.17
2018-02-06T09:10:12.531Z,10.37
2018-02-06T09:12:39.231Z,6.20
2018-02-06T09:15:06.116Z,7.83
2018-02-06T09:17:32.831Z,11.27
2018-02-06T09:19:59.513Z,9.93
2018-02-06T09:22:26.196Z,6.63
2018-02-06T09:24:52.975Z,9.90
2018-02-06T09:27:19.652Z,20.50
2018-02-06T09:29:46.366Z,8.17
2018-02-06T09:32:13.043Z,6.77
2018-02-06T09:34:39.727Z,6.33
2018-02-06T09:37:06.415Z,6.70
2018-02-06T09:39:33.112Z,7.10
2018-02-06T09:41:59.833Z,6.57
2018-02-06T09:44:26.547Z,7.10
2018-02-06T09:46:53.223Z,7.07
2018-02-06T09:49:20.116Z,6.53
2018-02-06T09:51:46.814Z,6.57
2018-02-06T09:54:13.513Z,6.20
2018-02-06T09:56:40.216Z,6.97
2018-02-06T09:59:06.909Z,6.17
2018-02-06T10:01:33.604Z,5.97
2018-02-06T10:04:00.299Z,6.60
2018-02-06T10:06:27.020Z,11.17
2018-02-06T10:08:53.717Z,6.80
2018-02-06T10:11:20.412Z,6.23
2018-02-06T10:13:47.112Z,6.20
2018-02-06T10:16:13.807Z,6.90
2018-02-06T10:18:40.492Z,5.73
2018-02-06T10:21:07.229Z,6.87
2018-02-06T10:23:34.122Z,6.43
2018-02-06T10:26:00.838Z,6.23
2018-02-06T10:28:27.543Z,5.90
2018-02-06T10:30:54.240Z,6.20
2018-02-06T10:33:20.921Z,6.53
2018-02-06T10:35:47.618Z,6.20
2018-02-06T10:38:14.349Z,6.50
2018-02-06T10:40:41.068Z,6.00
2018-02-06T10:43:07.897Z,6.43
2018-02-06T10:45:34.844Z,6.40
2018-02-06T10:48:01.519Z,5.73
2018-02-06T10:50:28.207Z,6.43
2018-02-06T10:52:54.952Z,5.90
2018-02-06T10:55:21.601Z,6.17
2018-02-06T10:57:48.305Z,6.67
2018-02-06T11:00:14.996Z,6.40
2018-02-06T11:02:41.679Z,6.30
2018-02-06T11:05:08.493Z,11.00
2018-02-06T11:07:35.162Z,6.63
2018-02-06T11:10:01.860Z,7.17
2018-02-06T11:12:28.566Z,9.63
2018-02-06T11:14:55.252Z,8.13
2018-02-06T11:17:21.951Z,14.70
2018-02-06T11:19:48.650Z,17.47
2018-02-06T11:22:15.364Z,21.97
2018-02-06T11:24:42.173Z,9.77
2018-02-06T11:27:08.846Z,14.73
2018-02-06T11:29:35.577Z,11.23
2018-02-06T11:32:02.292Z,13.90
2018-02-06T11:34:29.000Z,7.73
2018-02-06T11:36:55.658Z,6.77
2018-02-06T11:39:22.733Z,19.70
2018-02-06T11:41:49.466Z,6.60
2018-02-06T11:44:16.174Z,7.00
2018-02-06T11:46:42.851Z,13.10
2018-02-06T11:49:09.557Z,14.07
2018-02-06T11:51:36.254Z,13.03
2018-02-06T11:54:02.959Z,12.93
2018-02-06T11:56:29.904Z,9.23
2018-02-06T11:58:56.657Z,9.67
2018-02-06T12:01:23.343Z,8.83
2018-02-06T12:03:50.028Z,8.23
2018-02-06T12:06:16.749Z,10.93
2018-02-06T12:08:43.438Z,9.17
2018-02-06T12:11:10.148Z,18.10
2018-02-06T12:13:36.841Z,9.40
2018-02-06T12:16:03.532Z,16.37
2018-02-06T12:18:30.329Z,14.10
2018-02-06T12:20:57.019Z,14.70
2018-02-06T12:23:23.702Z,10.90
2018-02-06T12:25:50.407Z,14.53
2018-02-06T12:28:17.107Z,12.30
2018-02-06T12:30:44.039Z,16.20
2018-02-06T12:33:10.735Z,12.13
2018-02-06T12:35:37.418Z,19.03
2018-02-06T12:38:04.115Z,17.17
2018-02-06T12:40:30.814Z,22.50
2018-02-06T12:42:57.527Z,17.23
2018-02-06T12:45:24.379Z,21.60
2018-02-06T12:47:51.080Z,28.33
2018-02-06T12:50:17.776Z,17.37
2018-02-06T12:52:44.666Z,12.33
2018-02-06T12:55:11.724Z,21.57
2018-02-06T12:57:38.403Z,18.03
2018-02-06T13:00:05.168Z,16.60
2018-02-06T13:02:31.863Z,13.50
2018-02-06T13:04:58.579Z,14.03
2018-02-06T13:07:25.293Z,13.93
2018-02-06T13:09:51.998Z,11.83
2018-02-06T13:12:18.699Z,9.83
2018-02-06T13:14:45.397Z,10.80
2018-02-06T13:17:12.084Z,7.83
2018-02-06T13:19:38.799Z,10.43
2018-02-06T13:22:05.474Z,10.93
2018-02-06T13:24:32.159Z,6.97
2018-02-06T13:26:58.896Z,7.00
2018-02-06T13:29:25.544Z,6.77
2018-02-06T13:31:52.266Z,8.07
2018-02-06T13:34:18.955Z,11.40
2018-02-06T13:36:45.650Z,9.50
2018-02-06T13:39:12.356Z,8.27
2018-02-06T13:41:39.049Z,10.63
2018-02-06T13:44:05.767Z,15.50
2018-02-06T13:46:32.487Z,11.13
2018-02-06T13:48:59.163Z,9.10
2018-02-06T13:51:25.904Z,13.90
2018-02-06T13:53:52.621Z,12.27
2018-02-06T13:56:19.392Z,17.37
2018-02-06T13:58:46.081Z,10.53
2018-02-06T14:01:12.783Z,10.70
2018-02-06T14:03:39.478Z,7.40
2018-02-06T14:06:06.159Z,9.90
2018-02-06T14:08:32.879Z,10.67
2018-02-06T14:10:59.572Z,11.50
2018-02-06T14:13:26.413Z,6.90
2018-02-06T14:15:53.098Z,7.40
2018-02-06T14:18:19.840Z,8.20
2018-02-06T14:20:46.598Z,12.53
2018-02-06T14:23:13.299Z,7.90
2018-02-06T14:25:39.983Z,10.43
2018-02-06T14:28:06.675Z,10.30
2018-02-06T14:30:33.367Z,15.43
2018-02-06T14:33:00.082Z,13.07
2018-02-06T14:35:26.783Z,10.23
2018-02-06T14:37:54.277Z,10.07
2018-02-06T14:40:20.961Z,7.57
2018-02-06T14:42:47.672Z,10.63
2018-02-06T14:45:14.379Z,11.10
2018-02-06T14:47:41.084Z,8.53
2018-02-06T14:50:07.777Z,14.17
2018-02-06T14:52:34.453Z,9.73
2018-02-06T14:55:01.170Z,14.83
2018-02-06T14:57:27.882Z,13.57
2018-02-06T14:59:54.588Z,13.10
2018-02-06T15:02:21.356Z,9.03
2018-02-06T15:04:48.063Z,9.73
2018-02-06T15:07:14.769Z,10.77
2018-02-06T15:09:41.489Z,15.63
2018-02-06T15:12:08.181Z,14.10
2018-02-06T15:14:34.880Z,10.30
2018-02-06T15:17:01.604Z,14.13
2018-02-06T15:19:28.297Z,13.27
2018-02-06T15:21:55.016Z,10.70
2018-02-06T15:24:21.748Z,11.87
2018-02-06T15:26:48.461Z,15.17
2018-02-06T15:29:15.151Z,15.73
2018-02-06T15:31:41.852Z,15.47
2018-02-06T15:34:08.834Z,19.17
2018-02-06T15:36:35.521Z,19.57
2018-02-06T15:39:02.220Z,18.50
2018-02-06T15:41:28.926Z,20.00
2018-02-06T15:43:55.633Z,19.30
2018-02-06T15:46:22.384Z,19.43
2018-02-06T15:48:49.110Z,20.70
2018-02-06T15:51:15.836Z,24.23
2018-02-06T15:53:42.577Z,20.20
2018-02-06T15:56:09.231Z,21.40
2018-02-06T15:58:36.198Z,20.90
2018-02-06T16:01:05.678Z,21.10
2018-02-06T16:03:32.563Z,25.53
2018-02-06T16:05:59.269Z,19.27
2018-02-06T16:08:25.960Z,17.73
2018-02-06T16:10:52.664Z,16.17
2018-02-06T16:13:19.537Z,15.77
2018-02-06T16:15:46.240Z,17.83
2018-02-06T16:18:12.946Z,15.07
2018-02-06T16:20:39.673Z,14.47
2018-02-06T16:23:06.365Z,33.90
2018-02-06T16:25:33.063Z,62.07
2018-02-06T16:27:59.793Z,33.93
2018-02-06T16:30:26.508Z,20.83
2018-02-06T16:32:53.238Z,23.57
2018-02-06T16:35:19.975Z,21.50
2018-02-06T16:37:46.816Z,22.40
2018-02-06T16:40:14.092Z,22.10
2018-02-06T16:42:40.851Z,22.13
2018-02-06T16:45:07.636Z,21.80
2018-02-06T16:47:34.346Z,23.63
2018-02-06T16:50:01.061Z,23.80
2018-02-06T16:52:27.790Z,20.03
2018-02-06T16:54:54.494Z,17.63
2018-02-06T16:57:21.197Z,18.60
2018-02-06T16:59:47.896Z,17.23
2018-02-06T17:02:20.421Z,16.80
2018-02-06T17:04:47.143Z,16.20
2018-02-06T17:07:13.847Z,15.33
2018-02-06T17:09:40.585Z,15.23
2018-02-06T17:12:07.291Z,13.27
2018-02-06T17:14:34.169Z,13.47
2018-02-06T17:17:00.811Z,11.57
2018-02-06T17:19:27.525Z,12.90
2018-02-06T17:21:54.271Z,11.97
2018-02-06T17:24:20.971Z,12.10
2018-02-06T17:26:47.684Z,11.40
2018-02-06T17:29:14.391Z,11.20
2018-02-06T17:31:41.092Z,11.63
2018-02-06T17:34:07.814Z,10.87
2018-02-06T17:36:34.644Z,11.67
2018-02-06T17:39:01.361Z,12.83
2018-02-06T17:41:28.051Z,10.63
2018-02-06T17:43:54.785Z,10.27
2018-02-06T17:46:21.502Z,11.67
2018-02-06T17:48:48.210Z,11.03
2018-02-06T17:51:14.905Z,11.00
2018-02-06T17:53:41.652Z,10.60
2018-02-06T17:56:08.382Z,10.20
2018-02-06T17:58:35.253Z,9.77
2018-02-06T18:01:01.952Z,9.20
2018-02-06T18:03:28.789Z,8.80
2018-02-06T18:05:55.633Z,9.37
2018-02-06T18:08:22.353Z,10.13
2018-02-06T18:10:49.075Z,12.20
2018-02-06T18:13:15.801Z,10.83
2018-02-06T18:15:42.509Z,10.13
2018-02-06T18:18:09.245Z,9.77
2018-02-06T18:20:35.930Z,9.00
2018-02-06T18:23:02.681Z,9.27
2018-02-06T18:25:29.465Z,9.07
2018-02-06T18:27:56.173Z,9.80
2018-02-06T18:30:22.921Z,8.73
2018-02-06T18:32:49.653Z,9.20
2018-02-06T18:35:16.393Z,20.40
2018-02-06T18:37:43.101Z,20.73
2018-02-06T18:40:09.802Z,19.70
2018-02-06T18:42:36.530Z,17.07
2018-02-06T18:45:03.223Z,18.67
2018-02-06T18:47:29.993Z,13.93
2018-02-06T18:49:56.650Z,16.40
2018-02-06T18:52:23.377Z,18.00
2018-02-06T18:54:50.083Z,18.63
2018-02-06T18:57:16.789Z,18.13
2018-02-06T18:59:43.674Z,20.73
2018-02-06T19:02:10.370Z,17.00
2018-02-06T19:04:37.085Z,13.47
2018-02-06T19:07:03.782Z,15.80
2018-02-06T19:09:30.511Z,14.40
2018-02-06T19:11:57.595Z,20.47
2018-02-06T19:14:24.347Z,11.83
2018-02-06T19:16:51.092Z,11.77
2018-02-06T19:19:17.917Z,11.03
2018-02-06T19:21:44.684Z,11.23
2018-02-06T19:24:11.409Z,13.73
2018-02-06T19:26:38.111Z,12.43
2018-02-06T19:29:04.852Z,13.53
2018-02-06T19:31:31.588Z,10.97
2018-02-06T19:33:58.290Z,11.30
2018-02-06T19:36:25.018Z,12.13
2018-02-06T19:38:51.926Z,11.63
2018-02-06T19:41:18.663Z,11.23
2018-02-06T19:43:45.390Z,10.93
2018-02-06T19:46:12.104Z,30.00
2018-02-06T19:48:38.844Z,21.07
2018-02-06T19:51:05.583Z,15.97
2018-02-06T19:53:32.414Z,17.30
2018-02-06T19:55:59.158Z,14.70
2018-02-06T19:58:25.901Z,15.97
2018-02-06T20:00:52.746Z,16.40
2018-02-06T20:03:20.380Z,12.33
2018-02-06T20:05:47.100Z,9.87
2018-02-06T20:08:14.608Z,9.83
2018-02-06T20:10:41.537Z,9.67
2018-02-06T20:13:08.275Z,10.40
2018-02-06T20:15:35.032Z,10.63
2018-02-06T20:18:01.803Z,9.53
2018-02-06T20:20:28.560Z,10.33
2018-02-06T20:22:55.343Z,10.17
2018-02-06T20:25:22.102Z,13.53
2018-02-06T20:27:49.490Z,9.73
2018-02-06T20:30:16.240Z,10.30
2018-02-06T20:32:42.976Z,9.30
2018-02-06T20:35:09.665Z,12.50
2018-02-06T20:37:36.479Z,9.20
2018-02-06T20:40:04.333Z,11.93
2018-02-06T20:42:31.045Z,8.97
2018-02-06T20:44:57.770Z,9.10
2018-02-06T20:47:25.357Z,10.33
2018-02-06T20:49:52.095Z,9.00
2018-02-06T20:52:18.902Z,8.87
2018-02-06T20:54:45.762Z,9.13
2018-02-06T20:57:12.478Z,12.33
2018-02-06T20:59:39.175Z,8.63
2018-02-06T21:02:05.896Z,8.43
2018-02-06T21:04:32.621Z,11.73
2018-02-06T21:06:59.320Z,9.00
2018-02-06T21:09:26.032Z,9.43
2018-02-06T21:11:52.764Z,9.03
2018-02-06T21:14:19.549Z,9.13
2018-02-06T21:16:46.268Z,9.03
2018-02-06T21:19:13.979Z,9.37
2018-02-06T21:21:40.767Z,9.43
2018-02-06T21:24:07.480Z,8.97
2018-02-06T21:26:34.205Z,9.40
2018-02-06T21:29:01.755Z,9.57
2018-02-06T21:31:28.488Z,9.30
2018-02-06T21:33:55.248Z,9.27
2018-02-06T21:36:22.009Z,9.57
2018-02-06T21:38:48.716Z,9.30
2018-02-06T21:41:15.415Z,8.43
2018-02-06T21:43:42.117Z,8.47
2018-02-06T21:46:08.816Z,9.10
2018-02-06T21:48:35.523Z,9.03
2018-02-06T21:51:02.256Z,8.60
2018-02-06T21:53:28.961Z,9.00
2018-02-06T21:55:55.674Z,9.40
2018-02-06T21:58:22.372Z,11.33
2018-02-06T22:00:49.080Z,8.57
2018-02-06T22:03:16.729Z,8.67
2018-02-06T22:05:43.429Z,9.10
2018-02-06T22:08:10.134Z,8.13
2018-02-06T22:10:36.831Z,12.63
2018-02-06T22:13:03.533Z,8.23
2018-02-06T22:15:30.252Z,8.13
2018-02-06T22:17:56.939Z,8.90
2018-02-06T22:20:23.637Z,9.83
2018-02-06T22:22:50.358Z,8.87
2018-02-06T22:25:17.060Z,9.50
2018-02-06T22:27:43.795Z,9.77
2018-02-06T22:30:10.498Z,10.87
2018-02-06T22:32:37.842Z,10.07
2018-02-06T22:35:04.578Z,12.77
2018-02-06T22:37:31.292Z,10.33
2018-02-06T22:39:58.046Z,9.70
2018-02-06T22:42:24.804Z,14.37
2018-02-06T22:44:51.660Z,10.23
2018-02-06T22:47:18.372Z,13.07
2018-02-06T22:49:45.774Z,10.10
2018-02-06T22:52:12.482Z,10.07
2018-02-06T22:54:39.230Z,9.93
2018-02-06T22:57:06.904Z,10.20
2018-02-06T22:59:33.614Z,9.23
2018-02-06T23:02:00.383Z,10.07
2018-02-06T23:04:27.095Z,9.37
2018-02-06T23:06:53.780Z,9.50
2018-02-06T23:09:20.506Z,9.70
2018-02-06T23:11:47.287Z,10.27
2018-02-06T23:14:13.971Z,9.77
2018-02-06T23:16:40.709Z,11.53
2018-02-06T23:19:07.429Z,11.67
2018-02-06T23:21:34.156Z,10.07
2018-02-06T23:24:01.121Z,10.00
2018-02-06T23:26:27.840Z,11.00
2018-02-06T23:28:54.544Z,10.13
2018-02-06T23:31:21.259Z,10.47
2018-02-06T23:33:48.199Z,10.60
2018-02-06T23:36:15.024Z,10.63
2018-02-06T23:38:41.680Z,11.17
2018-02-06T23:41:08.383Z,10.50
2018-02-06T23:43:35.114Z,11.30
2018-02-06T23:46:01.841Z,10.57
2018-02-06T23:48:28.589Z,11.27
2018-02-06T23:50:55.287Z,10.77
2018-02-06T23:53:22.084Z,10.10
2018-02-06T23:55:48.830Z,10.67
2018-02-06T23:58:15.730Z,10.23
